createdAt,value
2022-09-09T00:02:16.510Z,12.19
2022-09-09T00:07:49.775Z,12.13
2022-09-09T00:13:23.147Z,12.18
2022-09-09T00:19:11.941Z,11.80
2022-09-09T00:24:39.696Z,11.82
2022-09-09T00:30:15.028Z,11.81
2022-09-09T00:35:40.725Z,11.74
2022-09-09T00:41:15.680Z,11.55
2022-09-09T00:46:55.033Z,11.52
2022-09-09T00:52:30.808Z,11.64
2022-09-09T00:57:53.676Z,11.58
2022-09-09T01:03:33.916Z,11.55
2022-09-09T01:09:19.118Z,11.51
2022-09-09T01:14:46.433Z,11.51
2022-09-09T01:20:20.454Z,11.59
2022-09-09T01:25:45.181Z,11.67
2022-09-09T01:31:10.005Z,11.74
2022-09-09T01:36:43.029Z,11.72
2022-09-09T01:42:07.370Z,11.72
2022-09-09T01:47:29.312Z,11.69
2022-09-09T01:52:56.051Z,11.63
2022-09-09T01:58:30.661Z,11.37
2022-09-09T02:03:58.761Z,11.63
2022-09-09T02:09:25.171Z,11.77
2022-09-09T02:14:56.893Z,11.79
2022-09-09T02:20:20.655Z,11.73
2022-09-09T02:25:43.817Z,11.87
2022-09-09T02:31:06.852Z,11.93
2022-09-09T02:36:32.891Z,11.79
2022-09-09T02:41:54.662Z,11.85
2022-09-09T02:47:28.343Z,11.85
2022-09-09T02:52:56.129Z,11.98
2022-09-09T02:58:19.486Z,11.98
2022-09-09T03:03:41.833Z,11.94
2022-09-09T03:09:03.682Z,12.12
2022-09-09T03:14:25.496Z,12.08
2022-09-09T03:19:47.660Z,12.08
2022-09-09T03:25:09.622Z,12.06
2022-09-09T03:30:31.918Z,12.17
2022-09-09T03:35:53.702Z,12.12
2022-09-09T03:41:15.470Z,11.98
2022-09-09T03:46:37.225Z,11.96
2022-09-09T03:51:58.997Z,12.15
2022-09-09T03:57:21.282Z,12.29
2022-09-09T04:02:43.252Z,12.14
2022-09-09T04:08:05.003Z,12.24
2022-09-09T04:13:27.136Z,12.16
2022-09-09T04:18:48.923Z,12.19
2022-09-09T04:24:10.725Z,12.25
2022-09-09T04:29:32.555Z,12.19
2022-09-09T04:34:54.366Z,12.25
2022-09-09T04:40:16.412Z,12.27
2022-09-09T04:45:38.278Z,12.29
2022-09-09T04:51:05.873Z,12.11
2022-09-09T04:56:27.666Z,12.30
2022-09-09T05:01:49.819Z,12.37
2022-09-09T05:07:11.599Z,12.37
2022-09-09T05:12:33.412Z,12.36
2022-09-09T05:18:01.513Z,12.37
2022-09-09T05:23:23.286Z,12.50
2022-09-09T05:28:45.744Z,12.52
2022-09-09T05:34:07.708Z,12.52
2022-09-09T05:39:29.474Z,12.24
2022-09-09T05:44:51.248Z,12.29
2022-09-09T05:50:13.066Z,12.33
2022-09-09T05:55:34.877Z,12.32
2022-09-09T06:01:08.640Z,12.47
2022-09-09T06:06:38.664Z,12.52
2022-09-09T06:12:00.581Z,12.64
2022-09-09T06:17:22.477Z,12.53
2022-09-09T06:22:44.233Z,12.60
2022-09-09T06:28:06.007Z,12.61
2022-09-09T06:33:32.059Z,12.72
2022-09-09T06:38:54.184Z,12.89
2022-09-09T06:44:16.078Z,12.84
2022-09-09T06:49:37.865Z,12.72
2022-09-09T06:55:00.037Z,12.88
2022-09-09T07:00:21.829Z,12.86
2022-09-09T07:05:43.633Z,12.94
2022-09-09T07:11:11.629Z,13.13
2022-09-09T07:16:34.463Z,12.96
2022-09-09T07:21:56.455Z,13.13
2022-09-09T07:27:18.334Z,13.31
2022-09-09T07:39:15.194Z,13.33
2022-09-09T07:44:38.567Z,13.18
2022-09-09T07:50:00.349Z,13.39
2022-09-09T07:55:23.277Z,13.22
2022-09-09T08:00:45.052Z,13.31
2022-09-09T08:06:09.286Z,13.46
2022-09-09T08:11:34.238Z,13.37
2022-09-09T08:16:58.675Z,13.25
2022-09-09T08:22:20.475Z,13.47
2022-09-09T08:27:42.478Z,13.44
2022-09-09T08:33:04.333Z,13.60
2022-09-09T08:38:26.265Z,13.77
2022-09-09T08:43:51.490Z,13.88
2022-09-09T08:49:51.205Z,14.02
2022-09-09T08:55:25.063Z,13.73
2022-09-09T09:01:14.802Z,13.93
2022-09-09T09:06:42.635Z,13.82
2022-09-09T09:12:15.522Z,14.09
2022-09-09T09:17:38.587Z,14.22
2022-09-09T09:23:05.199Z,13.99
2022-09-09T09:28:33.336Z,13.78
2022-09-09T09:33:57.083Z,13.92
2022-09-09T09:45:27.979Z,14.14
2022-09-09T09:50:49.705Z,14.22
2022-09-09T09:56:15.374Z,14.36
2022-09-09T10:01:37.488Z,14.31
2022-09-09T10:06:59.425Z,14.23
2022-09-09T10:12:24.011Z,14.15
2022-09-09T10:18:05.444Z,14.64
2022-09-09T10:24:01.307Z,14.58
2022-09-09T10:29:31.526Z,14.65
2022-09-09T10:35:03.989Z,14.67
2022-09-09T10:40:40.792Z,14.54
2022-09-09T10:46:21.568Z,14.69
2022-09-09T10:51:52.368Z,14.89
2022-09-09T10:57:34.761Z,14.67
2022-09-09T11:03:02.215Z,14.66
2022-09-09T11:08:29.690Z,14.93
2022-09-09T11:14:15.900Z,14.88
2022-09-09T11:19:45.025Z,14.95
2022-09-09T11:25:15.303Z,15.05
2022-09-09T11:30:58.574Z,14.88
2022-09-09T11:36:39.148Z,14.99
2022-09-09T11:42:16.533Z,14.90
2022-09-09T11:47:38.473Z,15.18
2022-09-09T11:53:07.296Z,15.01
2022-09-09T11:58:37.495Z,15.11
2022-09-09T12:04:36.357Z,14.82
2022-09-09T12:10:22.990Z,14.72
2022-09-09T12:15:50.616Z,14.88
2022-09-09T12:21:49.362Z,14.73
2022-09-09T12:27:37.497Z,14.88
2022-09-09T12:33:12.531Z,14.97
2022-09-09T12:38:40.263Z,14.94
2022-09-09T12:44:07.055Z,14.84
2022-09-09T12:49:28.797Z,14.96
2022-09-09T12:54:50.639Z,14.76
2022-09-09T13:00:16.836Z,14.93
2022-09-09T13:05:39.624Z,14.89
2022-09-09T13:11:05.435Z,14.64
2022-09-09T13:16:30.696Z,15.05
2022-09-09T13:21:52.644Z,15.01
2022-09-09T13:27:36.333Z,14.67
2022-09-09T13:33:10.510Z,14.93
2022-09-09T13:38:36.619Z,15.01
2022-09-09T13:43:59.382Z,14.97
2022-09-09T13:49:23.338Z,15.00
2022-09-09T13:54:50.185Z,14.77
2022-09-09T14:00:14.261Z,14.82
2022-09-09T14:05:36.133Z,14.85
2022-09-09T14:10:57.937Z,14.88
2022-09-09T14:16:19.801Z,14.92
2022-09-09T14:21:41.628Z,15.02
2022-09-09T14:27:03.705Z,15.06
2022-09-09T14:32:25.497Z,14.90
2022-09-09T14:37:47.302Z,15.07
2022-09-09T14:43:11.714Z,15.07
2022-09-09T14:48:33.886Z,14.99
2022-09-09T14:53:57.613Z,15.25
2022-09-09T14:59:19.389Z,15.16
2022-09-09T15:04:41.188Z,15.12
2022-09-09T15:10:04.066Z,15.21
2022-09-09T15:15:25.843Z,15.20
2022-09-09T15:20:47.843Z,15.32
2022-09-09T15:26:10.332Z,15.11
2022-09-09T15:31:32.938Z,14.82
2022-09-09T15:36:54.851Z,14.94
2022-09-09T15:42:16.620Z,14.97
2022-09-09T15:47:38.407Z,14.98
2022-09-09T15:53:00.899Z,14.95
2022-09-09T15:58:22.647Z,15.04
2022-09-09T16:03:45.645Z,15.01
2022-09-09T16:09:08.482Z,14.84
2022-09-09T16:14:30.560Z,14.71
2022-09-09T16:19:52.367Z,14.61
2022-09-09T16:25:14.218Z,14.41
2022-09-09T16:30:37.920Z,14.37
2022-09-09T16:36:06.270Z,14.40
2022-09-09T16:41:29.690Z,14.32
2022-09-09T16:46:52.367Z,14.41
2022-09-09T16:52:20.394Z,14.37
2022-09-09T16:57:42.520Z,14.25
2022-09-09T17:03:04.483Z,14.34
2022-09-09T17:08:26.354Z,14.24
2022-09-09T17:13:48.912Z,14.20
2022-09-09T17:19:11.769Z,14.28
2022-09-09T17:24:33.658Z,14.33
2022-09-09T17:29:55.412Z,14.37
2022-09-09T17:35:17.274Z,14.30
2022-09-09T17:40:39.025Z,14.26
2022-09-09T17:46:07.843Z,14.20
2022-09-09T17:51:31.278Z,14.22
2022-09-09T17:56:53.186Z,14.20
2022-09-09T18:02:15.032Z,14.36
2022-09-09T18:07:36.839Z,14.37
2022-09-09T18:12:58.670Z,14.28
2022-09-09T18:18:21.594Z,14.27
2022-09-09T18:23:44.004Z,14.39
2022-09-09T18:29:08.834Z,14.29
2022-09-09T18:34:30.723Z,14.09
2022-09-09T18:39:53.329Z,14.13
2022-09-09T18:45:15.799Z,14.08
2022-09-09T18:50:37.745Z,13.99
2022-09-09T18:56:10.934Z,14.13
2022-09-09T19:01:33.753Z,14.24
2022-09-09T19:06:55.691Z,13.93
2022-09-09T19:12:17.634Z,13.90
2022-09-09T19:17:40.652Z,14.06
2022-09-09T19:23:02.442Z,13.98
2022-09-09T19:28:24.272Z,14.00
2022-09-09T19:33:47.868Z,13.93
2022-09-09T19:39:10.892Z,13.86
2022-09-09T19:44:32.728Z,13.92
2022-09-09T19:49:54.600Z,13.79
2022-09-09T19:55:16.435Z,13.82
2022-09-09T20:00:39.655Z,13.58
2022-09-09T20:06:01.714Z,13.43
2022-09-09T20:11:25.037Z,13.53
2022-09-09T20:16:46.868Z,13.55
2022-09-09T20:22:08.882Z,13.54
2022-09-09T20:27:30.880Z,13.39
2022-09-09T20:32:52.801Z,13.55
2022-09-09T20:38:14.790Z,13.74
2022-09-09T20:43:36.616Z,13.64
2022-09-09T20:49:02.833Z,13.61
2022-09-09T20:54:27.324Z,13.36
2022-09-09T20:59:49.131Z,13.57
2022-09-09T21:05:10.919Z,13.60
2022-09-09T21:10:32.741Z,13.47
2022-09-09T21:15:54.627Z,13.54
2022-09-09T21:21:17.687Z,13.38
2022-09-09T21:26:39.484Z,13.47
2022-09-09T21:32:01.503Z,13.51
2022-09-09T21:37:23.362Z,13.47
2022-09-09T21:42:45.176Z,13.55
2022-09-09T21:48:09.601Z,13.38
2022-09-09T21:53:32.089Z,13.39
2022-09-09T21:58:59.165Z,13.35
2022-09-09T22:04:21.001Z,13.45
2022-09-09T22:09:43.359Z,13.29
2022-09-09T22:15:05.848Z,13.43
2022-09-09T22:20:27.727Z,13.38
2022-09-09T22:25:49.902Z,13.38
2022-09-09T22:31:11.785Z,13.34
2022-09-09T22:36:33.737Z,13.35
2022-09-09T22:41:55.529Z,13.21
2022-09-09T22:47:17.326Z,12.97
2022-09-09T22:52:39.191Z,13.02
2022-09-09T22:58:01.399Z,12.90
2022-09-09T23:03:23.259Z,13.01
2022-09-09T23:08:45.026Z,13.10
2022-09-09T23:14:10.067Z,12.95
2022-09-09T23:19:32.043Z,13.01
2022-09-09T23:24:53.897Z,12.98
2022-09-09T23:30:15.825Z,12.94
2022-09-09T23:35:37.609Z,13.15
2022-09-09T23:41:01.273Z,13.04
2022-09-09T23:46:26.697Z,13.06
2022-09-09T23:51:48.514Z,13.09
2022-09-09T23:57:10.769Z,13.02
